createdAt,value
2018-01-03T00:01:31.440Z,7.70
2018-01-03T00:03:59.795Z,7.80
2018-01-03T00:06:27.424Z,7.80
2018-01-03T00:08:55.039Z,7.80
2018-01-03T00:11:22.618Z,7.90
2018-01-03T00:13:50.181Z,7.90
2018-01-03T00:16:17.737Z,8.00
2018-01-03T00:18:45.370Z,7.90
2018-01-03T00:21:12.998Z,8.00
2018-01-03T00:23:40.598Z,8.00
2018-01-03T00:26:08.233Z,8.00
2018-01-03T00:28:35.835Z,8.00
2018-01-03T00:31:04.244Z,8.00
2018-01-03T00:33:31.864Z,7.90
2018-01-03T00:35:59.488Z,7.90
2018-01-03T00:38:27.087Z,7.90
2018-01-03T00:40:54.695Z,7.90
2018-01-03T00:43:22.332Z,7.90
2018-01-03T00:45:50.038Z,7.90
2018-01-03T00:48:17.652Z,7.90
2018-01-03T00:50:45.271Z,7.90
2018-01-03T00:53:13.648Z,8.00
2018-01-03T00:55:41.279Z,8.00
2018-01-03T00:58:08.920Z,8.00
2018-01-03T01:00:36.506Z,8.10
2018-01-03T01:03:04.059Z,8.10
2018-01-03T01:05:31.642Z,8.10
2018-01-03T01:07:59.244Z,8.20
2018-01-03T01:10:26.849Z,8.20
2018-01-03T01:12:54.447Z,8.30
2018-01-03T01:15:22.065Z,8.30
2018-01-03T01:17:49.712Z,8.30
2018-01-03T01:20:17.227Z,8.40
2018-01-03T01:22:44.783Z,8.50
2018-01-03T01:25:13.126Z,8.40
2018-01-03T01:27:40.703Z,8.40
2018-01-03T01:30:08.349Z,8.40
2018-01-03T01:32:35.916Z,8.50
2018-01-03T01:35:03.469Z,8.50
2018-01-03T01:37:31.042Z,8.60
2018-01-03T01:39:58.605Z,8.60
2018-01-03T01:42:27.867Z,8.70
2018-01-03T01:44:55.399Z,8.70
2018-01-03T01:47:24.659Z,8.80
2018-01-03T01:49:52.933Z,8.90
2018-01-03T01:52:20.577Z,8.90
2018-01-03T01:54:48.191Z,8.90
2018-01-03T01:57:15.784Z,8.90
2018-01-03T01:59:43.427Z,9.00
2018-01-03T02:02:10.986Z,9.10
2018-01-03T02:04:38.562Z,9.10
2018-01-03T02:07:06.093Z,9.10
2018-01-03T02:09:33.671Z,9.10
2018-01-03T02:12:01.199Z,9.10
2018-01-03T02:14:28.893Z,9.20
2018-01-03T02:16:56.433Z,9.20
2018-01-03T02:19:23.986Z,9.30
2018-01-03T02:21:51.520Z,9.30
2018-01-03T02:24:19.867Z,9.30
2018-01-03T02:26:58.471Z,9.40
2018-01-03T02:29:25.996Z,9.40
2018-01-03T02:31:53.508Z,9.40
2018-01-03T02:34:21.052Z,9.50
2018-01-03T02:36:48.559Z,9.50
2018-01-03T02:39:17.213Z,9.60
2018-01-03T02:41:44.854Z,9.60
2018-01-03T02:44:12.387Z,9.60
2018-01-03T02:46:40.708Z,9.70
2018-01-03T02:49:08.248Z,9.80
2018-01-03T02:51:35.755Z,9.80
2018-01-03T02:54:04.060Z,9.90
2018-01-03T02:56:31.601Z,9.90
2018-01-03T02:58:59.111Z,9.90
2018-01-03T03:01:26.630Z,10.00
2018-01-03T03:03:54.157Z,10.00
2018-01-03T03:06:21.718Z,10.00
2018-01-03T03:08:49.232Z,10.00
2018-01-03T03:11:16.788Z,10.10
2018-01-03T03:13:44.357Z,10.10
2018-01-03T03:16:11.875Z,10.20
2018-01-03T03:18:40.185Z,10.20
2018-01-03T03:21:07.756Z,10.20
2018-01-03T03:23:35.262Z,10.20
2018-01-03T03:26:02.815Z,10.30
2018-01-03T03:28:31.156Z,10.40
2018-01-03T03:30:58.665Z,10.40
2018-01-03T03:33:27.027Z,10.40
2018-01-03T03:35:54.555Z,10.40
2018-01-03T03:38:22.085Z,10.50
2018-01-03T03:40:49.617Z,10.50
2018-01-03T03:43:17.123Z,10.60
2018-01-03T03:45:44.659Z,10.70
2018-01-03T03:48:12.166Z,10.70
2018-01-03T03:50:39.716Z,10.80
2018-01-03T03:53:07.255Z,10.90
2018-01-03T03:55:34.878Z,11.00
2018-01-03T03:58:02.414Z,11.00
2018-01-03T04:00:30.775Z,11.10
2018-01-03T04:02:58.334Z,11.10
2018-01-03T04:05:25.884Z,11.10
2018-01-03T04:07:53.501Z,11.20
2018-01-03T04:10:21.032Z,11.20
2018-01-03T04:12:49.316Z,11.50
2018-01-03T04:15:17.655Z,11.40
2018-01-03T04:17:45.264Z,11.40
2018-01-03T04:20:12.808Z,11.40
2018-01-03T04:22:41.155Z,11.50
2018-01-03T04:25:08.685Z,11.40
2018-01-03T04:27:36.260Z,11.50
2018-01-03T04:30:03.840Z,11.50
2018-01-03T04:32:31.428Z,11.50
2018-01-03T04:34:59.759Z,11.40
2018-01-03T04:37:27.373Z,11.40
2018-01-03T04:39:54.880Z,11.40
2018-01-03T04:42:22.471Z,11.40
2018-01-03T04:44:50.066Z,11.30
2018-01-03T04:47:17.667Z,11.20
2018-01-03T04:49:45.333Z,11.00
2018-01-03T04:52:12.846Z,10.90
2018-01-03T04:54:40.366Z,10.80
2018-01-03T04:57:08.688Z,10.90
2018-01-03T04:59:36.240Z,10.90
2018-01-03T05:02:03.770Z,10.90
2018-01-03T05:04:31.275Z,11.00
2018-01-03T05:06:58.868Z,10.90
2018-01-03T05:09:26.385Z,10.90
2018-01-03T05:11:53.932Z,11.00
2018-01-03T05:14:21.439Z,11.00
2018-01-03T05:16:48.963Z,11.10
2018-01-03T05:19:16.519Z,11.10
2018-01-03T05:21:44.039Z,11.20
2018-01-03T05:24:11.557Z,11.20
2018-01-03T05:26:39.057Z,11.20
2018-01-03T05:29:07.363Z,11.30
2018-01-03T05:31:34.872Z,11.30
2018-01-03T05:34:02.392Z,11.30
2018-01-03T05:36:29.923Z,11.40
2018-01-03T05:38:58.200Z,11.50
2018-01-03T05:41:25.764Z,11.50
2018-01-03T05:43:53.280Z,11.60
2018-01-03T05:46:20.827Z,11.60
2018-01-03T05:48:48.331Z,11.70
2018-01-03T05:51:16.594Z,11.80
2018-01-03T05:53:44.912Z,11.80
2018-01-03T05:56:12.438Z,11.80
2018-01-03T05:58:40.731Z,11.70
2018-01-03T06:01:08.270Z,11.80
2018-01-03T06:03:35.749Z,11.70
2018-01-03T06:06:03.330Z,11.60
2018-01-03T06:08:30.834Z,11.50
2018-01-03T06:10:58.360Z,11.40
2018-01-03T06:13:25.874Z,11.40
2018-01-03T06:15:54.139Z,11.40
2018-01-03T06:18:22.482Z,11.50
2018-01-03T06:20:50.027Z,11.50
2018-01-03T06:23:17.532Z,11.50
2018-01-03T06:25:45.822Z,11.60
2018-01-03T06:28:13.343Z,11.60
2018-01-03T06:30:40.876Z,11.60
2018-01-03T06:33:08.399Z,11.70
2018-01-03T06:35:36.683Z,11.60
2018-01-03T06:38:04.187Z,11.60
2018-01-03T06:40:31.849Z,11.60
2018-01-03T06:42:59.375Z,11.60
2018-01-03T06:45:26.885Z,11.60
2018-01-03T06:47:54.426Z,11.70
2018-01-03T06:50:21.926Z,11.60
2018-01-03T06:52:50.252Z,11.60
2018-01-03T06:55:17.759Z,11.60
2018-01-03T06:57:46.093Z,11.70
2018-01-03T07:00:13.590Z,11.60
2018-01-03T07:02:41.860Z,11.40
2018-01-03T07:05:09.395Z,11.40
2018-01-03T07:07:36.896Z,11.10
2018-01-03T07:10:04.459Z,10.60
2018-01-03T07:12:31.967Z,10.30
2018-01-03T07:14:59.534Z,10.00
2018-01-03T07:17:27.031Z,9.90
2018-01-03T07:19:54.532Z,9.80
2018-01-03T07:22:22.068Z,9.70
2018-01-03T07:24:49.635Z,9.50
2018-01-03T07:27:17.183Z,9.40
2018-01-03T07:29:44.699Z,9.20
2018-01-03T07:32:13.009Z,9.10
2018-01-03T07:34:40.515Z,9.10
2018-01-03T07:37:08.039Z,9.10
2018-01-03T07:39:35.562Z,9.00
2018-01-03T07:42:03.124Z,9.00
2018-01-03T07:44:30.646Z,8.90
2018-01-03T07:46:58.173Z,8.90
2018-01-03T07:49:25.702Z,8.90
2018-01-03T07:51:53.279Z,9.00
2018-01-03T07:54:20.814Z,9.00
2018-01-03T07:56:48.340Z,9.00
2018-01-03T07:59:15.858Z,9.00
2018-01-03T08:01:43.372Z,8.90
2018-01-03T08:04:11.687Z,8.90
2018-01-03T08:06:40.008Z,8.90
2018-01-03T08:09:07.569Z,8.90
2018-01-03T08:11:35.116Z,8.90
2018-01-03T08:14:02.620Z,9.10
2018-01-03T08:16:30.951Z,9.20
2018-01-03T08:18:58.456Z,9.20
2018-01-03T08:21:26.754Z,9.30
2018-01-03T08:23:54.294Z,9.30
2018-01-03T08:26:21.838Z,9.30
2018-01-03T08:28:49.352Z,9.30
2018-01-03T08:31:16.921Z,9.30
2018-01-03T08:33:44.432Z,9.30
2018-01-03T08:36:12.226Z,9.40
2018-01-03T08:38:39.775Z,9.30
2018-01-03T08:41:07.316Z,9.30
2018-01-03T08:43:35.578Z,9.30
2018-01-03T08:46:03.138Z,9.20
2018-01-03T08:48:31.420Z,9.20
2018-01-03T08:50:59.719Z,9.10
2018-01-03T08:53:27.268Z,9.10
2018-01-03T08:55:54.986Z,9.10
2018-01-03T08:58:22.493Z,9.10
2018-01-03T09:00:50.053Z,8.90
2018-01-03T09:03:17.567Z,8.80
2018-01-03T09:05:45.125Z,8.70
2018-01-03T09:08:12.644Z,8.70
2018-01-03T09:10:40.164Z,8.60
2018-01-03T09:13:07.716Z,8.60
2018-01-03T09:15:35.984Z,8.60
2018-01-03T09:18:03.512Z,8.50
2018-01-03T09:20:31.026Z,8.50
2018-01-03T09:22:58.573Z,8.50
2018-01-03T09:25:26.904Z,8.30
2018-01-03T09:27:54.469Z,8.30
2018-01-03T09:30:21.958Z,8.40
2018-01-03T09:32:50.280Z,8.30
2018-01-03T09:35:17.856Z,8.30
2018-01-03T09:37:45.387Z,8.30
2018-01-03T09:40:12.910Z,8.30
2018-01-03T09:42:40.434Z,8.20
2018-01-03T09:45:07.959Z,8.20
2018-01-03T09:47:35.501Z,8.10
2018-01-03T09:50:03.784Z,7.90
2018-01-03T09:52:32.076Z,7.90
2018-01-03T09:54:59.629Z,7.90
2018-01-03T09:57:27.191Z,7.80
2018-01-03T09:59:54.700Z,7.80
2018-01-03T10:02:22.249Z,7.80
2018-01-03T10:04:49.785Z,7.70
2018-01-03T10:07:17.296Z,7.70
2018-01-03T10:09:44.872Z,7.70
2018-01-03T10:12:13.169Z,7.60
2018-01-03T10:14:40.724Z,7.60
2018-01-03T10:17:08.262Z,7.70
2018-01-03T10:19:35.771Z,7.70
2018-01-03T10:22:03.315Z,7.70
2018-01-03T10:24:30.825Z,7.80
2018-01-03T10:26:58.380Z,7.90
2018-01-03T10:29:25.925Z,7.80
2018-01-03T10:31:53.501Z,7.90
2018-01-03T10:34:21.625Z,7.90
2018-01-03T10:36:49.151Z,7.90
2018-01-03T10:39:16.685Z,7.90
2018-01-03T10:41:44.596Z,7.90
2018-01-03T10:44:12.123Z,8.00
2018-01-03T10:46:40.480Z,8.00
2018-01-03T10:49:08.058Z,8.00
2018-01-03T10:51:35.570Z,8.10
2018-01-03T10:54:03.072Z,8.10
2018-01-03T10:56:30.630Z,8.20
2018-01-03T10:58:58.172Z,8.20
2018-01-03T11:01:25.704Z,8.30
2018-01-03T11:03:53.270Z,8.30
2018-01-03T11:06:20.812Z,8.30
2018-01-03T11:08:48.373Z,8.40
2018-01-03T11:11:15.930Z,8.30
2018-01-03T11:13:43.487Z,8.30
2018-01-03T11:16:11.001Z,8.30
2018-01-03T11:18:38.606Z,8.40
2018-01-03T11:21:06.903Z,8.70
2018-01-03T11:23:34.425Z,8.70
2018-01-03T11:26:02.023Z,8.70
2018-01-03T11:28:29.523Z,8.80
2018-01-03T11:30:57.850Z,8.90
2018-01-03T11:33:25.415Z,8.90
2018-01-03T11:35:52.940Z,8.90
2018-01-03T11:38:20.480Z,9.10
2018-01-03T11:40:48.016Z,9.10
2018-01-03T11:43:16.320Z,9.20
2018-01-03T11:45:43.945Z,9.20
2018-01-03T11:48:11.507Z,9.30
2018-01-03T11:50:39.138Z,9.30
2018-01-03T11:53:06.667Z,9.40
2018-01-03T11:55:34.969Z,9.40
2018-01-03T11:58:02.610Z,9.40
2018-01-03T12:00:31.949Z,9.30
2018-01-03T12:02:59.444Z,9.10
2018-01-03T12:05:26.980Z,9.10
2018-01-03T12:07:54.558Z,9.10
2018-01-03T12:10:22.095Z,9.00
2018-01-03T12:12:49.619Z,9.00
2018-01-03T12:15:17.224Z,8.90
2018-01-03T12:17:44.758Z,8.70
2018-01-03T12:20:12.273Z,8.50
2018-01-03T12:22:39.808Z,8.30
2018-01-03T12:25:07.344Z,8.20
2018-01-03T12:27:34.857Z,8.10
2018-01-03T12:30:02.411Z,8.10
2018-01-03T12:32:30.746Z,8.20
2018-01-03T12:34:58.257Z,8.10
2018-01-03T12:37:25.815Z,8.10
2018-01-03T12:39:53.347Z,8.10
2018-01-03T12:42:21.650Z,8.10
2018-01-03T12:44:49.153Z,8.10
2018-01-03T12:47:16.730Z,8.20
2018-01-03T12:49:44.299Z,8.20
2018-01-03T12:52:11.796Z,8.30
2018-01-03T12:54:39.355Z,8.20
2018-01-03T12:57:06.888Z,8.10
2018-01-03T12:59:34.503Z,8.10
2018-01-03T13:02:02.048Z,7.90
2018-01-03T13:04:29.575Z,7.80
2018-01-03T13:06:57.124Z,7.80
2018-01-03T13:09:25.410Z,7.90
2018-01-03T13:11:52.980Z,8.00
2018-01-03T13:14:20.491Z,8.10
2018-01-03T13:16:48.004Z,8.30
2018-01-03T13:19:15.544Z,8.50
2018-01-03T13:21:43.851Z,8.40
2018-01-03T13:24:11.361Z,8.40
2018-01-03T13:26:39.662Z,8.60
2018-01-03T13:29:07.206Z,8.60
2018-01-03T13:31:35.491Z,8.80
2018-01-03T13:34:05.476Z,8.80
2018-01-03T13:36:32.996Z,8.80
2018-01-03T13:39:00.532Z,8.90
2018-01-03T13:41:28.093Z,8.90
2018-01-03T13:43:55.659Z,9.10
2018-01-03T13:46:23.192Z,9.20
2018-01-03T13:48:51.502Z,9.30
2018-01-03T13:51:19.075Z,9.30
2018-01-03T13:53:46.629Z,9.40
2018-01-03T13:56:14.176Z,9.40
2018-01-03T13:58:41.716Z,9.50
2018-01-03T14:01:10.044Z,9.40
2018-01-03T14:03:37.598Z,9.40
2018-01-03T14:06:05.109Z,9.40
2018-01-03T14:08:32.679Z,9.50
2018-01-03T14:11:00.224Z,9.50
2018-01-03T14:13:28.559Z,9.50
2018-01-03T14:15:56.115Z,9.50
2018-01-03T14:18:23.688Z,9.50
2018-01-03T14:20:51.203Z,9.60
2018-01-03T14:23:18.737Z,9.60
2018-01-03T14:25:46.290Z,9.60
2018-01-03T14:28:14.571Z,9.60
2018-01-03T14:30:42.903Z,9.60
2018-01-03T14:33:10.458Z,9.60
2018-01-03T14:35:38.227Z,9.70
2018-01-03T14:38:05.888Z,9.70
2018-01-03T14:40:33.428Z,9.70
2018-01-03T14:43:01.019Z,9.60
2018-01-03T14:45:28.669Z,9.40
2018-01-03T14:47:56.497Z,9.40
2018-01-03T14:50:24.061Z,9.20
2018-01-03T14:52:51.616Z,9.20
2018-01-03T14:55:19.163Z,9.20
2018-01-03T14:57:46.826Z,9.00
2018-01-03T15:00:14.373Z,8.90
2018-01-03T15:02:42.655Z,8.80
2018-01-03T15:05:10.962Z,8.80
2018-01-03T15:07:38.621Z,8.70
2018-01-03T15:10:06.264Z,8.70
2018-01-03T15:12:33.826Z,8.70
2018-01-03T15:15:01.379Z,8.80
2018-01-03T15:17:29.117Z,8.90
2018-01-03T15:19:57.620Z,8.70
2018-01-03T15:22:25.209Z,8.70
2018-01-03T15:24:52.787Z,8.70
2018-01-03T15:27:20.369Z,8.60
2018-01-03T15:29:48.006Z,8.40
2018-01-03T15:32:15.600Z,8.40
2018-01-03T15:34:43.176Z,8.30
2018-01-03T15:37:10.692Z,8.40
2018-01-03T15:39:38.260Z,8.30
2018-01-03T15:42:05.779Z,8.30
2018-01-03T15:44:33.293Z,8.30
2018-01-03T15:47:00.835Z,8.30
2018-01-03T15:49:28.368Z,8.40
2018-01-03T15:51:56.698Z,8.30
2018-01-03T15:54:25.025Z,8.40
2018-01-03T15:56:52.565Z,8.40
2018-01-03T15:59:20.107Z,8.40
2018-01-03T16:01:47.702Z,8.40
2018-01-03T16:04:15.980Z,8.40
2018-01-03T16:06:43.533Z,8.40
2018-01-03T16:09:11.111Z,8.40
2018-01-03T16:11:38.626Z,8.40
2018-01-03T16:14:06.585Z,8.40
2018-01-03T16:16:34.162Z,8.40
2018-01-03T16:19:01.698Z,8.40
2018-01-03T16:21:29.997Z,8.50
2018-01-03T16:23:57.681Z,8.50
2018-01-03T16:26:25.398Z,8.50
2018-01-03T16:28:52.942Z,8.60
2018-01-03T16:31:20.498Z,8.60
2018-01-03T16:33:48.899Z,8.70
2018-01-03T16:36:17.192Z,8.70
2018-01-03T16:38:44.819Z,8.70
2018-01-03T16:41:12.348Z,8.70
2018-01-03T16:43:39.889Z,8.70
2018-01-03T16:46:07.502Z,8.70
2018-01-03T16:48:35.088Z,8.80
2018-01-03T16:51:02.667Z,8.80
2018-01-03T16:53:30.176Z,8.90
2018-01-03T16:55:57.748Z,8.90
2018-01-03T16:58:25.261Z,8.90
2018-01-03T17:00:52.825Z,8.90
2018-01-03T17:03:20.371Z,8.90
2018-01-03T17:05:47.921Z,8.90
2018-01-03T17:08:15.454Z,8.90
2018-01-03T17:10:43.065Z,8.90
2018-01-03T17:13:10.590Z,9.00
2018-01-03T17:15:38.147Z,9.00
2018-01-03T17:18:05.678Z,8.90
2018-01-03T17:20:33.974Z,8.90
2018-01-03T17:23:01.540Z,8.90
2018-01-03T17:25:29.068Z,8.90
2018-01-03T17:27:57.411Z,8.90
2018-01-03T17:30:24.987Z,8.90
2018-01-03T17:32:52.544Z,8.90
2018-01-03T17:35:20.062Z,8.90
2018-01-03T17:37:47.631Z,8.80
2018-01-03T17:40:15.179Z,8.80
2018-01-03T17:42:42.742Z,8.80
2018-01-03T17:45:10.312Z,8.80
2018-01-03T17:47:37.922Z,8.80
2018-01-03T17:50:06.384Z,8.80
2018-01-03T17:52:33.915Z,8.80
2018-01-03T17:55:01.693Z,8.80
2018-01-03T17:57:29.248Z,8.70
2018-01-03T17:59:56.800Z,8.70
2018-01-03T18:02:24.355Z,8.80
2018-01-03T18:04:51.917Z,8.80
2018-01-03T18:07:19.906Z,8.80
2018-01-03T18:09:47.616Z,8.80
2018-01-03T18:12:15.192Z,8.80
2018-01-03T18:14:42.751Z,8.80
2018-01-03T18:17:10.281Z,8.80
2018-01-03T18:19:38.602Z,8.70
2018-01-03T18:22:06.175Z,8.70
2018-01-03T18:24:33.688Z,8.70
2018-01-03T18:27:01.258Z,8.60
2018-01-03T18:29:28.815Z,8.50
2018-01-03T18:31:56.593Z,8.50
2018-01-03T18:34:24.517Z,8.50
2018-01-03T18:36:53.033Z,8.50
2018-01-03T18:39:20.604Z,8.50
2018-01-03T18:41:48.143Z,8.40
2018-01-03T18:44:15.670Z,8.50
2018-01-03T18:46:43.424Z,8.50
2018-01-03T18:49:10.962Z,8.50
2018-01-03T18:51:38.500Z,8.50
2018-01-03T18:54:06.180Z,8.60
2018-01-03T18:56:33.881Z,8.60
2018-01-03T18:59:02.234Z,8.60
2018-01-03T19:01:29.798Z,8.60
2018-01-03T19:03:57.656Z,8.60
2018-01-03T19:06:25.211Z,8.60
2018-01-03T19:08:52.922Z,8.60
2018-01-03T19:11:21.364Z,8.60
2018-01-03T19:13:49.074Z,8.60
2018-01-03T19:16:16.658Z,8.60
2018-01-03T19:18:44.208Z,8.50
2018-01-03T19:21:11.738Z,8.60
2018-01-03T19:23:40.043Z,8.50
2018-01-03T19:26:07.719Z,8.50
2018-01-03T19:28:35.267Z,8.60
2018-01-03T19:31:02.882Z,8.60
2018-01-03T19:33:30.394Z,8.60
2018-01-03T19:35:57.933Z,8.60
2018-01-03T19:38:25.487Z,8.60
2018-01-03T19:40:53.079Z,8.60
2018-01-03T19:43:20.643Z,8.60
2018-01-03T19:45:49.921Z,8.60
2018-01-03T19:48:17.617Z,8.60
2018-01-03T19:50:45.246Z,8.60
2018-01-03T19:53:12.840Z,8.70
2018-01-03T19:55:40.394Z,8.60
2018-01-03T19:58:07.954Z,8.60
2018-01-03T20:00:35.549Z,8.60
2018-01-03T20:03:03.950Z,8.60
2018-01-03T20:05:31.520Z,8.60
2018-01-03T20:07:59.095Z,8.60
2018-01-03T20:10:26.624Z,8.60
2018-01-03T20:12:54.363Z,8.50
2018-01-03T20:15:21.891Z,8.40
2018-01-03T20:17:49.487Z,8.40
2018-01-03T20:20:17.011Z,8.40
2018-01-03T20:22:44.705Z,8.40
2018-01-03T20:25:13.085Z,8.40
2018-01-03T20:27:41.387Z,8.40
2018-01-03T20:30:08.968Z,8.40
2018-01-03T20:32:37.024Z,8.50
2018-01-03T20:35:04.667Z,8.60
2018-01-03T20:37:33.065Z,8.50
2018-01-03T20:40:00.596Z,8.50
2018-01-03T20:42:28.872Z,8.50
2018-01-03T20:44:57.278Z,8.40
2018-01-03T20:47:25.053Z,8.40
2018-01-03T20:49:52.713Z,8.50
2018-01-03T20:52:20.297Z,8.50
2018-01-03T20:54:47.966Z,8.60
2018-01-03T20:57:15.514Z,8.50
2018-01-03T20:59:43.130Z,8.50
2018-01-03T21:02:11.512Z,8.50
2018-01-03T21:04:52.095Z,8.50
2018-01-03T21:07:20.471Z,8.60
2018-01-03T21:09:47.996Z,8.60
2018-01-03T21:12:15.790Z,8.60
2018-01-03T21:14:43.365Z,8.60
2018-01-03T21:17:10.899Z,8.60
2018-01-03T21:19:39.420Z,8.60
2018-01-03T21:22:08.723Z,8.60
2018-01-03T21:24:36.560Z,8.50
2018-01-03T21:27:04.092Z,8.50
2018-01-03T21:29:31.681Z,8.50
2018-01-03T21:31:59.341Z,8.40
2018-01-03T21:34:27.552Z,8.20
2018-01-03T21:36:55.230Z,8.20
2018-01-03T21:39:22.839Z,8.20
2018-01-03T21:41:50.380Z,8.30
2018-01-03T21:44:18.667Z,8.20
2018-01-03T21:46:46.213Z,8.20
2018-01-03T21:49:13.762Z,8.20
2018-01-03T21:51:41.688Z,8.20
2018-01-03T21:54:16.736Z,8.20
2018-01-03T21:56:45.257Z,8.30
2018-01-03T21:59:12.877Z,8.30
2018-01-03T22:01:40.428Z,8.20
2018-01-03T22:04:08.037Z,8.30
2018-01-03T22:06:35.596Z,8.20
2018-01-03T22:09:04.009Z,8.10
2018-01-03T22:11:40.196Z,8.00
2018-01-03T22:14:08.171Z,8.00
2018-01-03T22:16:35.774Z,8.00
2018-01-03T22:19:04.115Z,7.90
2018-01-03T22:21:31.720Z,7.90
2018-01-03T22:23:59.247Z,8.00
2018-01-03T22:26:26.780Z,7.90
2018-01-03T22:28:56.389Z,7.80
2018-01-03T22:31:23.938Z,7.80
2018-01-03T22:33:51.512Z,7.80
2018-01-03T22:36:20.798Z,7.80
2018-01-03T22:38:50.163Z,7.80
2018-01-03T22:41:17.800Z,7.80
2018-01-03T22:43:46.699Z,7.90
2018-01-03T22:49:19.165Z,7.90
2018-01-03T22:55:03.637Z,8.00
2018-01-03T22:57:31.297Z,8.00
2018-01-03T22:59:58.911Z,8.00
2018-01-03T23:02:26.521Z,8.00
2018-01-03T23:04:54.155Z,8.10
2018-01-03T23:07:21.691Z,8.00
2018-01-03T23:09:49.306Z,8.00
2018-01-03T23:12:16.888Z,8.10
2018-01-03T23:14:57.533Z,8.10
2018-01-03T23:17:26.095Z,8.10
2018-01-03T23:19:53.679Z,8.00
2018-01-03T23:22:21.513Z,8.00
2018-01-03T23:24:50.380Z,8.00
2018-01-03T23:27:18.053Z,8.00
2018-01-03T23:29:45.650Z,8.10
2018-01-03T23:41:28.221Z,8.10
2018-01-03T23:43:55.835Z,8.10
2018-01-03T23:46:23.403Z,8.00
2018-01-03T23:48:50.915Z,8.00
2018-01-03T23:51:18.464Z,8.10
2018-01-03T23:53:46.002Z,8.10
2018-01-03T23:56:13.582Z,8.10
2018-01-03T23:58:48.271Z,8.20
